15°C Temp
12°C Dewpoint
82% Humidity
Temperature
32 KM/H
20 MPH
17 KTS
210°
South South
West

Wind Speed
Mostly Cloudy
Conditions
Pressure 1011.92 (hPa) - 29.88 (in)
Visibility 6.2 (mi) - 10.0 (km)

Current Conditions
EGNJ
Location 20(mi)
Metar :EGNJ 262050Z AUTO 21017KT 9999 BKN021/// BKN026/// 15/12 Q1012
Tue 26th October 21:50 pm

Airport
  Metar Aviation API Data Provided by https://www.checkwx.com/ PHP scripts by weather34.com ©2021